sensor_id;sensor_type;location;lat;lon;timestamp;P1;durP1;ratioP1;P2;durP2;ratioP2
11988;SDS011;6054;50.966;7.094;2023-04-24T00:01:23;0.43;;;0.43;;
11988;SDS011;6054;50.966;7.094;2023-04-24T00:03:50;0.40;;;0.40;;
11988;SDS011;6054;50.966;7.094;2023-04-24T00:06:17;0.60;;;0.60;;
11988;SDS011;6054;50.966;7.094;2023-04-24T00:08:44;0.57;;;0.38;;
11988;SDS011;6054;50.966;7.094;2023-04-24T00:11:10;0.40;;;0.40;;
11988;SDS011;6054;50.966;7.094;2023-04-24T00:13:37;0.55;;;0.50;;
11988;SDS011;6054;50.966;7.094;2023-04-24T00:16:04;0.50;;;0.47;;
11988;SDS011;6054;50.966;7.094;2023-04-24T00:18:33;0.77;;;0.50;;
11988;SDS011;6054;50.966;7.094;2023-04-24T00:20:59;0.50;;;0.50;;
11988;SDS011;6054;50.966;7.094;2023-04-24T00:23:26;1.05;;;0.40;;
11988;SDS011;6054;50.966;7.094;2023-04-24T00:25:53;0.68;;;0.68;;
11988;SDS011;6054;50.966;7.094;2023-04-24T00:28:20;0.55;;;0.55;;
11988;SDS011;6054;50.966;7.094;2023-04-24T00:30:46;1.58;;;0.70;;
11988;SDS011;6054;50.966;7.094;2023-04-24T00:33:13;1.55;;;0.60;;
11988;SDS011;6054;50.966;7.094;2023-04-24T00:35:41;0.60;;;0.60;;
11988;SDS011;6054;50.966;7.094;2023-04-24T00:38:08;1.65;;;0.60;;
11988;SDS011;6054;50.966;7.094;2023-04-24T00:40:35;0.40;;;0.40;;
11988;SDS011;6054;50.966;7.094;2023-04-24T00:43:01;0.93;;;0.70;;
11988;SDS011;6054;50.966;7.094;2023-04-24T00:45:28;0.40;;;0.40;;
11988;SDS011;6054;50.966;7.094;2023-04-24T00:47:56;0.80;;;0.50;;
11988;SDS011;6054;50.966;7.094;2023-04-24T00:50:23;1.85;;;0.70;;
11988;SDS011;6054;50.966;7.094;2023-04-24T00:52:52;0.70;;;0.70;;
11988;SDS011;6054;50.966;7.094;2023-04-24T00:55:20;0.63;;;0.60;;
11988;SDS011;6054;50.966;7.094;2023-04-24T00:57:46;1.58;;;0.50;;
11988;SDS011;6054;50.966;7.094;2023-04-24T01:00:14;0.93;;;0.60;;
11988;SDS011;6054;50.966;7.094;2023-04-24T01:02:42;0.70;;;0.70;;
11988;SDS011;6054;50.966;7.094;2023-04-24T01:05:10;0.68;;;0.68;;
11988;SDS011;6054;50.966;7.094;2023-04-24T01:07:38;2.00;;;0.70;;
11988;SDS011;6054;50.966;7.094;2023-04-24T01:10:10;0.70;;;0.70;;
11988;SDS011;6054;50.966;7.094;2023-04-24T01:12:38;2.20;;;0.68;;
11988;SDS011;6054;50.966;7.094;2023-04-24T01:15:06;0.75;;;0.75;;
11988;SDS011;6054;50.966;7.094;2023-04-24T01:17:33;0.50;;;0.50;;
11988;SDS011;6054;50.966;7.094;2023-04-24T01:20:00;0.70;;;0.70;;
11988;SDS011;6054;50.966;7.094;2023-04-24T01:22:32;0.90;;;0.90;;
11988;SDS011;6054;50.966;7.094;2023-04-24T01:24:59;0.77;;;0.70;;
11988;SDS011;6054;50.966;7.094;2023-04-24T01:27:26;1.00;;;0.98;;
11988;SDS011;6054;50.966;7.094;2023-04-24T01:29:53;1.92;;;1.10;;
11988;SDS011;6054;50.966;7.094;2023-04-24T01:32:20;1.23;;;1.10;;
11988;SDS011;6054;50.966;7.094;2023-04-24T01:34:48;1.52;;;1.00;;
11988;SDS011;6054;50.966;7.094;2023-04-24T01:37:15;1.48;;;0.95;;
11988;SDS011;6054;50.966;7.094;2023-04-24T01:39:43;1.30;;;1.00;;
11988;SDS011;6054;50.966;7.094;2023-04-24T01:42:10;1.48;;;0.75;;
11988;SDS011;6054;50.966;7.094;2023-04-24T01:44:38;1.02;;;0.98;;
11988;SDS011;6054;50.966;7.094;2023-04-24T01:47:04;1.58;;;1.00;;
11988;SDS011;6054;50.966;7.094;2023-04-24T01:49:32;1.10;;;1.00;;
11988;SDS011;6054;50.966;7.094;2023-04-24T01:51:59;1.00;;;0.90;;
11988;SDS011;6054;50.966;7.094;2023-04-24T01:54:25;1.38;;;1.27;;
11988;SDS011;6054;50.966;7.094;2023-04-24T01:56:54;1.58;;;1.08;;
11988;SDS011;6054;50.966;7.094;2023-04-24T01:59:20;1.40;;;1.30;;
11988;SDS011;6054;50.966;7.094;2023-04-24T02:01:49;3.53;;;1.75;;
11988;SDS011;6054;50.966;7.094;2023-04-24T02:04:16;2.33;;;1.88;;
11988;SDS011;6054;50.966;7.094;2023-04-24T02:06:43;2.13;;;1.98;;
11988;SDS011;6054;50.966;7.094;2023-04-24T02:09:10;3.30;;;1.90;;
11988;SDS011;6054;50.966;7.094;2023-04-24T02:11:37;2.00;;;1.88;;
11988;SDS011;6054;50.966;7.094;2023-04-24T02:14:05;7.00;;;2.33;;
11988;SDS011;6054;50.966;7.094;2023-04-24T02:16:32;2.38;;;1.95;;
11988;SDS011;6054;50.966;7.094;2023-04-24T02:19:00;2.05;;;1.95;;
11988;SDS011;6054;50.966;7.094;2023-04-24T02:21:27;2.45;;;2.13;;
11988;SDS011;6054;50.966;7.094;2023-04-24T02:23:55;3.28;;;2.58;;
11988;SDS011;6054;50.966;7.094;2023-04-24T02:26:22;4.32;;;2.28;;
11988;SDS011;6054;50.966;7.094;2023-04-24T02:28:49;2.90;;;2.70;;
11988;SDS011;6054;50.966;7.094;2023-04-24T02:31:18;3.15;;;2.88;;
11988;SDS011;6054;50.966;7.094;2023-04-24T02:33:44;3.45;;;2.65;;
11988;SDS011;6054;50.966;7.094;2023-04-24T02:36:11;4.85;;;2.58;;
11988;SDS011;6054;50.966;7.094;2023-04-24T02:38:39;4.38;;;2.92;;
11988;SDS011;6054;50.966;7.094;2023-04-24T02:41:05;2.50;;;2.30;;
11988;SDS011;6054;50.966;7.094;2023-04-24T02:43:32;3.25;;;2.85;;
11988;SDS011;6054;50.966;7.094;2023-04-24T02:45:59;2.95;;;2.70;;
11988;SDS011;6054;50.966;7.094;2023-04-24T02:48:27;4.50;;;2.97;;
11988;SDS011;6054;50.966;7.094;2023-04-24T02:50:54;3.08;;;2.78;;
11988;SDS011;6054;50.966;7.094;2023-04-24T02:53:21;3.15;;;2.60;;
11988;SDS011;6054;50.966;7.094;2023-04-24T02:55:48;3.97;;;2.67;;
11988;SDS011;6054;50.966;7.094;2023-04-24T02:58:15;4.75;;;2.42;;
11988;SDS011;6054;50.966;7.094;2023-04-24T03:00:42;2.97;;;2.70;;
11988;SDS011;6054;50.966;7.094;2023-04-24T03:03:09;3.72;;;3.20;;
11988;SDS011;6054;50.966;7.094;2023-04-24T03:05:37;3.90;;;3.00;;
11988;SDS011;6054;50.966;7.094;2023-04-24T03:08:04;3.15;;;2.85;;
11988;SDS011;6054;50.966;7.094;2023-04-24T03:10:31;3.85;;;3.42;;
11988;SDS011;6054;50.966;7.094;2023-04-24T03:12:58;4.45;;;3.42;;
11988;SDS011;6054;50.966;7.094;2023-04-24T03:15:24;3.25;;;2.92;;
11988;SDS011;6054;50.966;7.094;2023-04-24T03:17:52;4.60;;;3.08;;
11988;SDS011;6054;50.966;7.094;2023-04-24T03:20:19;4.60;;;2.90;;
11988;SDS011;6054;50.966;7.094;2023-04-24T03:22:47;5.22;;;3.45;;
11988;SDS011;6054;50.966;7.094;2023-04-24T03:25:14;3.78;;;3.47;;
11988;SDS011;6054;50.966;7.094;2023-04-24T03:27:41;3.67;;;3.35;;
11988;SDS011;6054;50.966;7.094;2023-04-24T03:30:08;3.85;;;3.45;;
11988;SDS011;6054;50.966;7.094;2023-04-24T03:32:35;4.47;;;3.35;;
11988;SDS011;6054;50.966;7.094;2023-04-24T03:35:04;4.22;;;3.83;;
11988;SDS011;6054;50.966;7.094;2023-04-24T03:37:32;4.13;;;3.33;;
11988;SDS011;6054;50.966;7.094;2023-04-24T03:40:00;5.75;;;3.72;;
11988;SDS011;6054;50.966;7.094;2023-04-24T03:42:27;3.88;;;3.58;;
11988;SDS011;6054;50.966;7.094;2023-04-24T03:44:53;4.55;;;3.95;;
11988;SDS011;6054;50.966;7.094;2023-04-24T03:47:20;3.78;;;3.42;;
11988;SDS011;6054;50.966;7.094;2023-04-24T03:49:47;5.75;;;3.63;;
11988;SDS011;6054;50.966;7.094;2023-04-24T03:52:14;4.22;;;3.83;;
11988;SDS011;6054;50.966;7.094;2023-04-24T03:54:41;4.20;;;3.47;;
11988;SDS011;6054;50.966;7.094;2023-04-24T03:57:09;3.53;;;3.22;;
11988;SDS011;6054;50.966;7.094;2023-04-24T03:59:35;7.07;;;3.78;;
11988;SDS011;6054;50.966;7.094;2023-04-24T04:02:02;5.07;;;4.10;;
11988;SDS011;6054;50.966;7.094;2023-04-24T04:04:29;4.80;;;3.88;;
11988;SDS011;6054;50.966;7.094;2023-04-24T04:06:56;5.05;;;3.55;;
11988;SDS011;6054;50.966;7.094;2023-04-24T04:09:26;5.18;;;3.40;;
11988;SDS011;6054;50.966;7.094;2023-04-24T04:11:53;5.70;;;3.85;;
11988;SDS011;6054;50.966;7.094;2023-04-24T04:14:21;3.83;;;3.50;;
11988;SDS011;6054;50.966;7.094;2023-04-24T04:16:48;6.40;;;3.60;;
11988;SDS011;6054;50.966;7.094;2023-04-24T04:19:15;4.70;;;4.00;;
11988;SDS011;6054;50.966;7.094;2023-04-24T04:21:41;4.55;;;3.80;;
11988;SDS011;6054;50.966;7.094;2023-04-24T04:24:10;4.00;;;3.63;;
11988;SDS011;6054;50.966;7.094;2023-04-24T04:26:37;4.45;;;3.67;;
11988;SDS011;6054;50.966;7.094;2023-04-24T04:29:05;5.43;;;4.00;;
11988;SDS011;6054;50.966;7.094;2023-04-24T04:31:34;3.00;;;2.75;;
11988;SDS011;6054;50.966;7.094;2023-04-24T04:34:01;3.70;;;3.40;;
11988;SDS011;6054;50.966;7.094;2023-04-24T04:36:28;3.50;;;3.00;;
11988;SDS011;6054;50.966;7.094;2023-04-24T04:38:55;4.50;;;3.42;;
11988;SDS011;6054;50.966;7.094;2023-04-24T04:41:24;5.30;;;3.28;;
11988;SDS011;6054;50.966;7.094;2023-04-24T04:43:51;5.28;;;3.30;;
11988;SDS011;6054;50.966;7.094;2023-04-24T04:46:17;5.28;;;4.13;;
11988;SDS011;6054;50.966;7.094;2023-04-24T04:48:45;3.42;;;3.13;;
11988;SDS011;6054;50.966;7.094;2023-04-24T04:51:12;4.07;;;3.67;;
11988;SDS011;6054;50.966;7.094;2023-04-24T04:53:39;4.78;;;3.30;;
11988;SDS011;6054;50.966;7.094;2023-04-24T04:56:06;4.82;;;3.20;;
11988;SDS011;6054;50.966;7.094;2023-04-24T04:58:32;3.60;;;3.30;;
11988;SDS011;6054;50.966;7.094;2023-04-24T05:00:59;3.80;;;3.38;;
11988;SDS011;6054;50.966;7.094;2023-04-24T05:03:27;4.07;;;3.67;;
11988;SDS011;6054;50.966;7.094;2023-04-24T05:05:55;4.38;;;3.85;;
11988;SDS011;6054;50.966;7.094;2023-04-24T05:08:23;3.80;;;3.45;;
11988;SDS011;6054;50.966;7.094;2023-04-24T05:10:50;5.35;;;3.55;;
11988;SDS011;6054;50.966;7.094;2023-04-24T05:13:17;3.92;;;3.03;;
11988;SDS011;6054;50.966;7.094;2023-04-24T05:15:43;5.00;;;3.80;;
11988;SDS011;6054;50.966;7.094;2023-04-24T05:18:10;4.10;;;3.17;;
11988;SDS011;6054;50.966;7.094;2023-04-24T05:20:37;5.93;;;3.63;;
11988;SDS011;6054;50.966;7.094;2023-04-24T05:23:05;3.88;;;3.55;;
11988;SDS011;6054;50.966;7.094;2023-04-24T05:25:32;3.75;;;3.30;;
11988;SDS011;6054;50.966;7.094;2023-04-24T05:28:00;4.13;;;3.28;;
11988;SDS011;6054;50.966;7.094;2023-04-24T05:30:27;3.60;;;3.13;;
11988;SDS011;6054;50.966;7.094;2023-04-24T05:32:54;3.90;;;3.50;;
11988;SDS011;6054;50.966;7.094;2023-04-24T05:35:20;3.33;;;3.10;;
11988;SDS011;6054;50.966;7.094;2023-04-24T05:37:47;3.60;;;3.28;;
11988;SDS011;6054;50.966;7.094;2023-04-24T05:40:16;4.53;;;3.15;;
11988;SDS011;6054;50.966;7.094;2023-04-24T05:42:43;3.40;;;3.10;;
11988;SDS011;6054;50.966;7.094;2023-04-24T05:45:09;4.85;;;3.53;;
11988;SDS011;6054;50.966;7.094;2023-04-24T05:47:41;6.45;;;3.50;;
11988;SDS011;6054;50.966;7.094;2023-04-24T05:50:08;6.00;;;3.83;;
11988;SDS011;6054;50.966;7.094;2023-04-24T05:52:36;4.20;;;3.80;;
11988;SDS011;6054;50.966;7.094;2023-04-24T05:55:03;5.30;;;3.83;;
11988;SDS011;6054;50.966;7.094;2023-04-24T05:57:31;4.72;;;4.05;;
11988;SDS011;6054;50.966;7.094;2023-04-24T05:59:58;4.93;;;3.70;;
11988;SDS011;6054;50.966;7.094;2023-04-24T06:02:25;7.47;;;4.45;;
11988;SDS011;6054;50.966;7.094;2023-04-24T06:04:52;4.65;;;4.25;;
11988;SDS011;6054;50.966;7.094;2023-04-24T06:07:19;4.45;;;3.88;;
11988;SDS011;6054;50.966;7.094;2023-04-24T06:09:46;4.30;;;3.85;;
11988;SDS011;6054;50.966;7.094;2023-04-24T06:12:13;4.93;;;3.85;;
11988;SDS011;6054;50.966;7.094;2023-04-24T06:14:41;4.60;;;4.20;;
11988;SDS011;6054;50.966;7.094;2023-04-24T06:17:07;6.47;;;3.63;;
11988;SDS011;6054;50.966;7.094;2023-04-24T06:19:34;4.43;;;4.03;;
11988;SDS011;6054;50.966;7.094;2023-04-24T06:22:01;4.72;;;4.03;;
11988;SDS011;6054;50.966;7.094;2023-04-24T06:24:28;4.28;;;3.90;;
11988;SDS011;6054;50.966;7.094;2023-04-24T06:26:54;4.38;;;3.88;;
11988;SDS011;6054;50.966;7.094;2023-04-24T06:29:22;4.60;;;3.90;;
11988;SDS011;6054;50.966;7.094;2023-04-24T06:31:50;4.28;;;3.97;;
11988;SDS011;6054;50.966;7.094;2023-04-24T06:34:16;5.15;;;4.68;;
11988;SDS011;6054;50.966;7.094;2023-04-24T06:36:43;5.28;;;4.47;;
11988;SDS011;6054;50.966;7.094;2023-04-24T06:39:10;4.88;;;4.50;;
11988;SDS011;6054;50.966;7.094;2023-04-24T06:41:37;5.00;;;4.50;;
11988;SDS011;6054;50.966;7.094;2023-04-24T06:44:04;5.00;;;4.60;;
11988;SDS011;6054;50.966;7.094;2023-04-24T06:46:31;5.10;;;4.60;;
11988;SDS011;6054;50.966;7.094;2023-04-24T06:48:59;4.68;;;3.72;;
11988;SDS011;6054;50.966;7.094;2023-04-24T06:51:26;3.72;;;3.42;;
11988;SDS011;6054;50.966;7.094;2023-04-24T06:53:53;3.30;;;2.97;;
11988;SDS011;6054;50.966;7.094;2023-04-24T06:56:21;18.17;;;3.35;;
11988;SDS011;6054;50.966;7.094;2023-04-24T06:58:48;4.13;;;2.67;;
11988;SDS011;6054;50.966;7.094;2023-04-24T07:01:15;3.88;;;2.95;;
11988;SDS011;6054;50.966;7.094;2023-04-24T07:03:41;3.15;;;2.55;;
11988;SDS011;6054;50.966;7.094;2023-04-24T07:06:09;2.33;;;2.17;;
11988;SDS011;6054;50.966;7.094;2023-04-24T07:08:37;4.68;;;1.98;;
11988;SDS011;6054;50.966;7.094;2023-04-24T07:11:04;3.97;;;1.75;;
11988;SDS011;6054;50.966;7.094;2023-04-24T07:13:31;1.60;;;1.48;;
11988;SDS011;6054;50.966;7.094;2023-04-24T07:16:00;3.17;;;1.75;;
11988;SDS011;6054;50.966;7.094;2023-04-24T07:18:27;1.98;;;1.67;;
11988;SDS011;6054;50.966;7.094;2023-04-24T07:20:54;1.83;;;1.73;;
11988;SDS011;6054;50.966;7.094;2023-04-24T07:23:22;3.00;;;1.80;;
11988;SDS011;6054;50.966;7.094;2023-04-24T07:25:49;2.70;;;1.75;;
11988;SDS011;6054;50.966;7.094;2023-04-24T07:28:16;1.90;;;1.80;;
11988;SDS011;6054;50.966;7.094;2023-04-24T07:30:43;2.17;;;1.98;;
11988;SDS011;6054;50.966;7.094;2023-04-24T07:33:10;3.08;;;1.95;;
11988;SDS011;6054;50.966;7.094;2023-04-24T07:35:38;1.90;;;1.80;;
11988;SDS011;6054;50.966;7.094;2023-04-24T07:38:05;1.85;;;1.70;;
11988;SDS011;6054;50.966;7.094;2023-04-24T07:40:33;1.42;;;1.17;;
11988;SDS011;6054;50.966;7.094;2023-04-24T07:42:59;2.28;;;2.00;;
11988;SDS011;6054;50.966;7.094;2023-04-24T07:45:26;4.35;;;1.70;;
11988;SDS011;6054;50.966;7.094;2023-04-24T07:47:53;2.03;;;1.67;;
11988;SDS011;6054;50.966;7.094;2023-04-24T07:50:20;4.70;;;1.70;;
11988;SDS011;6054;50.966;7.094;2023-04-24T07:52:47;4.53;;;1.77;;
11988;SDS011;6054;50.966;7.094;2023-04-24T07:55:14;1.58;;;1.23;;
11988;SDS011;6054;50.966;7.094;2023-04-24T07:57:42;2.10;;;1.20;;
11988;SDS011;6054;50.966;7.094;2023-04-24T08:00:09;2.47;;;1.17;;
11988;SDS011;6054;50.966;7.094;2023-04-24T08:02:37;5.35;;;1.10;;
11988;SDS011;6054;50.966;7.094;2023-04-24T08:05:04;0.98;;;0.90;;
11988;SDS011;6054;50.966;7.094;2023-04-24T08:07:31;0.82;;;0.82;;
11988;SDS011;6054;50.966;7.094;2023-04-24T08:09:58;2.47;;;0.70;;
11988;SDS011;6054;50.966;7.094;2023-04-24T08:12:25;2.05;;;1.00;;
11988;SDS011;6054;50.966;7.094;2023-04-24T08:14:55;1.27;;;0.77;;
11988;SDS011;6054;50.966;7.094;2023-04-24T08:17:23;0.80;;;0.80;;
11988;SDS011;6054;50.966;7.094;2023-04-24T08:19:50;1.38;;;0.70;;
11988;SDS011;6054;50.966;7.094;2023-04-24T08:22:18;0.50;;;0.50;;
11988;SDS011;6054;50.966;7.094;2023-04-24T08:24:45;0.85;;;0.77;;
11988;SDS011;6054;50.966;7.094;2023-04-24T08:27:12;1.10;;;0.98;;
11988;SDS011;6054;50.966;7.094;2023-04-24T08:29:38;4.85;;;0.98;;
11988;SDS011;6054;50.966;7.094;2023-04-24T08:32:06;0.80;;;0.80;;
11988;SDS011;6054;50.966;7.094;2023-04-24T08:34:33;1.88;;;0.90;;
11988;SDS011;6054;50.966;7.094;2023-04-24T08:37:00;0.80;;;0.80;;
11988;SDS011;6054;50.966;7.094;2023-04-24T08:39:27;1.15;;;0.85;;
11988;SDS011;6054;50.966;7.094;2023-04-24T08:41:54;2.30;;;0.75;;
11988;SDS011;6054;50.966;7.094;2023-04-24T08:44:21;1.42;;;0.90;;
11988;SDS011;6054;50.966;7.094;2023-04-24T08:46:48;2.70;;;0.90;;
11988;SDS011;6054;50.966;7.094;2023-04-24T08:49:17;0.95;;;0.93;;
11988;SDS011;6054;50.966;7.094;2023-04-24T08:51:45;2.53;;;1.00;;
11988;SDS011;6054;50.966;7.094;2023-04-24T08:54:13;2.05;;;0.93;;
11988;SDS011;6054;50.966;7.094;2023-04-24T08:56:40;1.00;;;0.98;;
11988;SDS011;6054;50.966;7.094;2023-04-24T08:59:09;1.35;;;1.20;;
11988;SDS011;6054;50.966;7.094;2023-04-24T09:01:37;2.55;;;1.27;;
11988;SDS011;6054;50.966;7.094;2023-04-24T09:04:04;1.10;;;0.93;;
11988;SDS011;6054;50.966;7.094;2023-04-24T09:06:42;1.10;;;1.10;;
11988;SDS011;6054;50.966;7.094;2023-04-24T09:09:13;1.38;;;1.30;;
11988;SDS011;6054;50.966;7.094;2023-04-24T09:11:42;4.95;;;1.60;;
11988;SDS011;6054;50.966;7.094;2023-04-24T09:14:09;1.88;;;1.70;;
11988;SDS011;6054;50.966;7.094;2023-04-24T09:16:37;3.30;;;1.73;;
11988;SDS011;6054;50.966;7.094;2023-04-24T09:19:03;4.22;;;1.90;;
11988;SDS011;6054;50.966;7.094;2023-04-24T09:21:31;1.98;;;1.80;;
11988;SDS011;6054;50.966;7.094;2023-04-24T09:24:00;2.42;;;1.95;;
11988;SDS011;6054;50.966;7.094;2023-04-24T09:26:28;5.78;;;2.60;;
11988;SDS011;6054;50.966;7.094;2023-04-24T09:28:57;3.80;;;2.45;;
11988;SDS011;6054;50.966;7.094;2023-04-24T09:31:26;4.13;;;2.65;;
11988;SDS011;6054;50.966;7.094;2023-04-24T09:33:54;4.32;;;2.63;;
11988;SDS011;6054;50.966;7.094;2023-04-24T09:36:26;3.45;;;2.53;;
11988;SDS011;6054;50.966;7.094;2023-04-24T09:38:57;5.53;;;3.28;;
11988;SDS011;6054;50.966;7.094;2023-04-24T09:41:25;4.22;;;2.83;;
11988;SDS011;6054;50.966;7.094;2023-04-24T09:43:53;6.18;;;3.47;;
11988;SDS011;6054;50.966;7.094;2023-04-24T09:46:28;4.40;;;3.58;;
11988;SDS011;6054;50.966;7.094;2023-04-24T09:48:56;6.10;;;3.63;;
11988;SDS011;6054;50.966;7.094;2023-04-24T09:51:32;4.95;;;3.75;;
11988;SDS011;6054;50.966;7.094;2023-04-24T09:54:00;7.00;;;4.22;;
11988;SDS011;6054;50.966;7.094;2023-04-24T09:56:29;7.90;;;4.50;;
11988;SDS011;6054;50.966;7.094;2023-04-24T09:59:03;4.40;;;3.95;;
11988;SDS011;6054;50.966;7.094;2023-04-24T10:01:31;7.32;;;4.63;;
11988;SDS011;6054;50.966;7.094;2023-04-24T10:03:58;6.00;;;4.47;;
11988;SDS011;6054;50.966;7.094;2023-04-24T10:06:29;7.50;;;4.32;;
11988;SDS011;6054;50.966;7.094;2023-04-24T10:08:57;8.10;;;5.13;;
11988;SDS011;6054;50.966;7.094;2023-04-24T10:11:25;5.82;;;5.20;;
11988;SDS011;6054;50.966;7.094;2023-04-24T10:13:53;13.13;;;5.25;;
11988;SDS011;6054;50.966;7.094;2023-04-24T10:16:22;11.50;;;5.20;;
11988;SDS011;6054;50.966;7.094;2023-04-24T10:18:49;9.40;;;5.80;;
11988;SDS011;6054;50.966;7.094;2023-04-24T10:21:16;6.82;;;5.25;;
11988;SDS011;6054;50.966;7.094;2023-04-24T10:23:43;9.75;;;6.25;;
11988;SDS011;6054;50.966;7.094;2023-04-24T10:26:11;9.93;;;4.95;;
11988;SDS011;6054;50.966;7.094;2023-04-24T10:28:42;8.88;;;5.38;;
11988;SDS011;6054;50.966;7.094;2023-04-24T10:31:12;10.70;;;5.90;;
11988;SDS011;6054;50.966;7.094;2023-04-24T10:33:39;10.93;;;6.00;;
11988;SDS011;6054;50.966;7.094;2023-04-24T10:36:08;9.13;;;5.10;;
11988;SDS011;6054;50.966;7.094;2023-04-24T10:38:36;7.18;;;4.30;;
11988;SDS011;6054;50.966;7.094;2023-04-24T10:41:06;9.57;;;4.65;;
11988;SDS011;6054;50.966;7.094;2023-04-24T10:43:35;10.13;;;4.35;;
11988;SDS011;6054;50.966;7.094;2023-04-24T10:46:02;8.20;;;4.43;;
11988;SDS011;6054;50.966;7.094;2023-04-24T10:48:32;7.78;;;4.03;;
11988;SDS011;6054;50.966;7.094;2023-04-24T10:50:59;8.38;;;4.78;;
11988;SDS011;6054;50.966;7.094;2023-04-24T10:53:27;9.05;;;4.07;;
11988;SDS011;6054;50.966;7.094;2023-04-24T10:55:57;6.55;;;4.35;;
11988;SDS011;6054;50.966;7.094;2023-04-24T10:58:35;9.95;;;4.22;;
11988;SDS011;6054;50.966;7.094;2023-04-24T11:01:03;7.50;;;4.47;;
11988;SDS011;6054;50.966;7.094;2023-04-24T11:03:32;7.85;;;4.28;;
11988;SDS011;6054;50.966;7.094;2023-04-24T11:06:00;7.35;;;4.05;;
11988;SDS011;6054;50.966;7.094;2023-04-24T11:08:29;10.02;;;3.55;;
11988;SDS011;6054;50.966;7.094;2023-04-24T11:11:01;6.13;;;3.80;;
11988;SDS011;6054;50.966;7.094;2023-04-24T11:16:32;7.13;;;3.05;;
11988;SDS011;6054;50.966;7.094;2023-04-24T11:19:03;11.10;;;3.42;;
11988;SDS011;6054;50.966;7.094;2023-04-24T11:21:31;4.25;;;2.38;;
11988;SDS011;6054;50.966;7.094;2023-04-24T11:26:50;9.40;;;3.33;;
11988;SDS011;6054;50.966;7.094;2023-04-24T11:29:17;10.40;;;3.35;;
11988;SDS011;6054;50.966;7.094;2023-04-24T11:31:46;11.38;;;3.08;;
11988;SDS011;6054;50.966;7.094;2023-04-24T11:34:17;9.73;;;3.28;;
11988;SDS011;6054;50.966;7.094;2023-04-24T11:36:44;7.75;;;2.97;;
11988;SDS011;6054;50.966;7.094;2023-04-24T11:39:12;10.20;;;3.28;;
11988;SDS011;6054;50.966;7.094;2023-04-24T11:41:40;8.23;;;3.15;;
11988;SDS011;6054;50.966;7.094;2023-04-24T11:44:07;10.38;;;4.20;;
11988;SDS011;6054;50.966;7.094;2023-04-24T11:46:35;12.60;;;4.20;;
11988;SDS011;6054;50.966;7.094;2023-04-24T11:49:02;7.80;;;3.72;;
11988;SDS011;6054;50.966;7.094;2023-04-24T11:51:31;9.13;;;3.53;;
11988;SDS011;6054;50.966;7.094;2023-04-24T11:53:58;10.40;;;3.35;;
11988;SDS011;6054;50.966;7.094;2023-04-24T11:56:25;23.77;;;4.40;;
11988;SDS011;6054;50.966;7.094;2023-04-24T11:58:52;8.18;;;3.47;;
11988;SDS011;6054;50.966;7.094;2023-04-24T12:01:19;9.57;;;4.05;;
11988;SDS011;6054;50.966;7.094;2023-04-24T12:03:47;12.38;;;3.42;;
11988;SDS011;6054;50.966;7.094;2023-04-24T12:06:16;10.23;;;4.13;;
11988;SDS011;6054;50.966;7.094;2023-04-24T12:08:46;10.23;;;4.03;;
11988;SDS011;6054;50.966;7.094;2023-04-24T12:11:14;8.35;;;4.07;;
11988;SDS011;6054;50.966;7.094;2023-04-24T12:13:42;7.78;;;4.07;;
11988;SDS011;6054;50.966;7.094;2023-04-24T12:16:09;12.57;;;4.60;;
11988;SDS011;6054;50.966;7.094;2023-04-24T12:18:40;8.98;;;4.55;;
11988;SDS011;6054;50.966;7.094;2023-04-24T12:21:15;7.07;;;4.55;;
11988;SDS011;6054;50.966;7.094;2023-04-24T12:23:42;10.95;;;4.97;;
11988;SDS011;6054;50.966;7.094;2023-04-24T12:26:11;10.55;;;4.80;;
11988;SDS011;6054;50.966;7.094;2023-04-24T12:28:38;11.68;;;5.53;;
11988;SDS011;6054;50.966;7.094;2023-04-24T12:31:06;9.55;;;5.53;;
11988;SDS011;6054;50.966;7.094;2023-04-24T12:33:33;11.60;;;5.60;;
11988;SDS011;6054;50.966;7.094;2023-04-24T12:36:01;11.98;;;6.05;;
11988;SDS011;6054;50.966;7.094;2023-04-24T12:38:29;10.15;;;5.50;;
11988;SDS011;6054;50.966;7.094;2023-04-24T12:41:02;8.88;;;5.38;;
11988;SDS011;6054;50.966;7.094;2023-04-24T12:43:31;12.65;;;6.22;;
11988;SDS011;6054;50.966;7.094;2023-04-24T12:45:58;9.35;;;4.32;;
11988;SDS011;6054;50.966;7.094;2023-04-24T12:48:25;10.02;;;4.65;;
11988;SDS011;6054;50.966;7.094;2023-04-24T12:50:51;9.02;;;4.35;;
11988;SDS011;6054;50.966;7.094;2023-04-24T12:53:18;10.90;;;4.15;;
11988;SDS011;6054;50.966;7.094;2023-04-24T12:55:45;10.63;;;4.22;;
11988;SDS011;6054;50.966;7.094;2023-04-24T12:58:17;11.13;;;4.47;;
11988;SDS011;6054;50.966;7.094;2023-04-24T13:00:46;14.82;;;5.07;;
11988;SDS011;6054;50.966;7.094;2023-04-24T13:03:13;9.55;;;4.18;;
11988;SDS011;6054;50.966;7.094;2023-04-24T13:05:41;8.13;;;4.38;;
11988;SDS011;6054;50.966;7.094;2023-04-24T13:08:08;9.35;;;4.05;;
11988;SDS011;6054;50.966;7.094;2023-04-24T13:10:35;8.73;;;3.60;;
11988;SDS011;6054;50.966;7.094;2023-04-24T13:13:02;8.02;;;3.60;;
11988;SDS011;6054;50.966;7.094;2023-04-24T13:15:29;7.47;;;3.78;;
11988;SDS011;6054;50.966;7.094;2023-04-24T13:17:57;10.07;;;3.70;;
11988;SDS011;6054;50.966;7.094;2023-04-24T13:20:24;6.75;;;3.58;;
11988;SDS011;6054;50.966;7.094;2023-04-24T13:22:51;10.30;;;3.58;;
11988;SDS011;6054;50.966;7.094;2023-04-24T13:25:18;7.70;;;3.55;;
11988;SDS011;6054;50.966;7.094;2023-04-24T13:27:45;6.85;;;3.70;;
11988;SDS011;6054;50.966;7.094;2023-04-24T13:30:12;9.88;;;3.67;;
11988;SDS011;6054;50.966;7.094;2023-04-24T13:32:39;7.55;;;3.72;;
11988;SDS011;6054;50.966;7.094;2023-04-24T13:35:07;4.93;;;3.25;;
11988;SDS011;6054;50.966;7.094;2023-04-24T13:37:34;10.15;;;4.43;;
11988;SDS011;6054;50.966;7.094;2023-04-24T13:40:01;10.50;;;3.88;;
11988;SDS011;6054;50.966;7.094;2023-04-24T13:42:30;8.50;;;3.95;;
11988;SDS011;6054;50.966;7.094;2023-04-24T13:44:57;7.68;;;3.38;;
11988;SDS011;6054;50.966;7.094;2023-04-24T13:47:24;5.47;;;3.15;;
11988;SDS011;6054;50.966;7.094;2023-04-24T13:49:51;8.15;;;2.95;;
11988;SDS011;6054;50.966;7.094;2023-04-24T13:52:20;7.03;;;2.90;;
11988;SDS011;6054;50.966;7.094;2023-04-24T13:54:47;6.78;;;3.00;;
11988;SDS011;6054;50.966;7.094;2023-04-24T13:57:14;6.05;;;2.75;;
11988;SDS011;6054;50.966;7.094;2023-04-24T13:59:41;11.77;;;3.55;;
11988;SDS011;6054;50.966;7.094;2023-04-24T14:02:08;7.75;;;2.75;;
11988;SDS011;6054;50.966;7.094;2023-04-24T14:04:35;5.85;;;2.60;;
11988;SDS011;6054;50.966;7.094;2023-04-24T14:07:02;4.75;;;2.45;;
11988;SDS011;6054;50.966;7.094;2023-04-24T14:09:30;7.65;;;3.03;;
11988;SDS011;6054;50.966;7.094;2023-04-24T14:11:56;6.72;;;2.50;;
11988;SDS011;6054;50.966;7.094;2023-04-24T14:14:23;5.85;;;2.70;;
11988;SDS011;6054;50.966;7.094;2023-04-24T14:16:50;10.48;;;2.85;;
11988;SDS011;6054;50.966;7.094;2023-04-24T14:19:17;7.32;;;2.53;;
11988;SDS011;6054;50.966;7.094;2023-04-24T14:21:44;4.20;;;2.75;;
11988;SDS011;6054;50.966;7.094;2023-04-24T14:24:10;8.25;;;3.05;;
11988;SDS011;6054;50.966;7.094;2023-04-24T14:26:38;5.72;;;2.67;;
11988;SDS011;6054;50.966;7.094;2023-04-24T14:29:05;5.85;;;2.40;;
11988;SDS011;6054;50.966;7.094;2023-04-24T14:31:32;4.50;;;2.67;;
11988;SDS011;6054;50.966;7.094;2023-04-24T14:33:59;5.60;;;2.78;;
11988;SDS011;6054;50.966;7.094;2023-04-24T14:36:25;6.60;;;3.42;;
11988;SDS011;6054;50.966;7.094;2023-04-24T14:38:52;5.18;;;2.63;;
11988;SDS011;6054;50.966;7.094;2023-04-24T14:41:19;9.20;;;2.97;;
11988;SDS011;6054;50.966;7.094;2023-04-24T14:43:47;5.47;;;2.63;;
11988;SDS011;6054;50.966;7.094;2023-04-24T14:46:15;5.50;;;3.05;;
11988;SDS011;6054;50.966;7.094;2023-04-24T14:48:41;6.85;;;2.97;;
11988;SDS011;6054;50.966;7.094;2023-04-24T14:51:08;6.95;;;3.00;;
11988;SDS011;6054;50.966;7.094;2023-04-24T14:53:35;6.13;;;3.00;;
11988;SDS011;6054;50.966;7.094;2023-04-24T14:56:02;3.83;;;2.92;;
11988;SDS011;6054;50.966;7.094;2023-04-24T14:58:29;5.00;;;3.28;;
11988;SDS011;6054;50.966;7.094;2023-04-24T15:00:57;4.63;;;2.80;;
11988;SDS011;6054;50.966;7.094;2023-04-24T15:03:23;5.72;;;3.00;;
11988;SDS011;6054;50.966;7.094;2023-04-24T15:05:51;4.32;;;2.88;;
11988;SDS011;6054;50.966;7.094;2023-04-24T15:08:18;5.38;;;2.88;;